sensor_id;sensor_type;location;lat;lon;timestamp;P1;durP1;ratioP1;P2;durP2;ratioP2
10100;SDS011;5090;51.258;4.436;2023-03-12T00:02:28;5.97;;;4.40;;
10100;SDS011;5090;51.258;4.436;2023-03-12T00:04:57;6.63;;;4.03;;
10100;SDS011;5090;51.258;4.436;2023-03-12T00:07:25;10.43;;;4.00;;
10100;SDS011;5090;51.258;4.436;2023-03-12T00:09:53;14.10;;;3.93;;
10100;SDS011;5090;51.258;4.436;2023-03-12T00:12:22;6.00;;;3.90;;
10100;SDS011;5090;51.258;4.436;2023-03-12T00:14:50;8.07;;;3.83;;
10100;SDS011;5090;51.258;4.436;2023-03-12T00:17:18;7.33;;;4.30;;
10100;SDS011;5090;51.258;4.436;2023-03-12T00:19:49;6.93;;;3.90;;
10100;SDS011;5090;51.258;4.436;2023-03-12T00:22:14;7.27;;;3.90;;
10100;SDS011;5090;51.258;4.436;2023-03-12T00:24:43;6.43;;;3.87;;
10100;SDS011;5090;51.258;4.436;2023-03-12T00:27:11;8.97;;;4.27;;
10100;SDS011;5090;51.258;4.436;2023-03-12T00:29:39;12.07;;;4.47;;
10100;SDS011;5090;51.258;4.436;2023-03-12T00:32:07;6.07;;;3.60;;
10100;SDS011;5090;51.258;4.436;2023-03-12T00:34:35;8.63;;;3.83;;
10100;SDS011;5090;51.258;4.436;2023-03-12T00:37:04;4.57;;;3.27;;
10100;SDS011;5090;51.258;4.436;2023-03-12T00:39:32;7.90;;;4.20;;
10100;SDS011;5090;51.258;4.436;2023-03-12T00:42:01;13.80;;;3.67;;
10100;SDS011;5090;51.258;4.436;2023-03-12T00:44:29;7.10;;;3.80;;
10100;SDS011;5090;51.258;4.436;2023-03-12T00:46:57;6.33;;;3.73;;
10100;SDS011;5090;51.258;4.436;2023-03-12T00:49:26;9.40;;;3.30;;
10100;SDS011;5090;51.258;4.436;2023-03-12T00:51:54;7.70;;;3.77;;
10100;SDS011;5090;51.258;4.436;2023-03-12T00:54:22;7.60;;;3.90;;
10100;SDS011;5090;51.258;4.436;2023-03-12T00:56:50;4.43;;;3.30;;
10100;SDS011;5090;51.258;4.436;2023-03-12T00:59:19;8.20;;;4.10;;
10100;SDS011;5090;51.258;4.436;2023-03-12T01:01:47;6.03;;;3.60;;
10100;SDS011;5090;51.258;4.436;2023-03-12T01:04:15;9.97;;;3.70;;
10100;SDS011;5090;51.258;4.436;2023-03-12T01:06:43;7.83;;;3.60;;
10100;SDS011;5090;51.258;4.436;2023-03-12T01:09:13;8.03;;;4.10;;
10100;SDS011;5090;51.258;4.436;2023-03-12T01:11:41;14.50;;;5.00;;
10100;SDS011;5090;51.258;4.436;2023-03-12T01:14:09;7.50;;;4.03;;
10100;SDS011;5090;51.258;4.436;2023-03-12T01:16:38;7.57;;;3.80;;
10100;SDS011;5090;51.258;4.436;2023-03-12T01:19:06;8.43;;;3.50;;
10100;SDS011;5090;51.258;4.436;2023-03-12T01:21:38;6.33;;;3.53;;
10100;SDS011;5090;51.258;4.436;2023-03-12T01:24:06;4.93;;;3.67;;
10100;SDS011;5090;51.258;4.436;2023-03-12T01:26:35;9.17;;;3.67;;
10100;SDS011;5090;51.258;4.436;2023-03-12T01:29:07;5.83;;;3.53;;
10100;SDS011;5090;51.258;4.436;2023-03-12T01:31:35;8.53;;;3.50;;
10100;SDS011;5090;51.258;4.436;2023-03-12T01:34:04;6.87;;;3.87;;
10100;SDS011;5090;51.258;4.436;2023-03-12T01:36:32;5.73;;;3.40;;
10100;SDS011;5090;51.258;4.436;2023-03-12T01:39:00;7.23;;;3.57;;
10100;SDS011;5090;51.258;4.436;2023-03-12T01:41:29;9.47;;;4.30;;
10100;SDS011;5090;51.258;4.436;2023-03-12T01:43:57;12.57;;;3.97;;
10100;SDS011;5090;51.258;4.436;2023-03-12T01:46:27;6.60;;;3.93;;
10100;SDS011;5090;51.258;4.436;2023-03-12T01:48:55;8.00;;;3.57;;
10100;SDS011;5090;51.258;4.436;2023-03-12T01:51:23;11.17;;;4.03;;
10100;SDS011;5090;51.258;4.436;2023-03-12T01:53:51;11.43;;;4.30;;
10100;SDS011;5090;51.258;4.436;2023-03-12T01:56:19;9.57;;;3.73;;
10100;SDS011;5090;51.258;4.436;2023-03-12T01:58:48;6.43;;;4.07;;
10100;SDS011;5090;51.258;4.436;2023-03-12T02:01:15;9.17;;;4.73;;
10100;SDS011;5090;51.258;4.436;2023-03-12T02:03:44;8.00;;;3.97;;
10100;SDS011;5090;51.258;4.436;2023-03-12T02:06:12;10.23;;;4.37;;
10100;SDS011;5090;51.258;4.436;2023-03-12T02:08:41;8.90;;;4.60;;
10100;SDS011;5090;51.258;4.436;2023-03-12T02:11:08;7.73;;;4.97;;
10100;SDS011;5090;51.258;4.436;2023-03-12T02:13:36;8.53;;;4.93;;
10100;SDS011;5090;51.258;4.436;2023-03-12T02:16:04;6.20;;;4.37;;
10100;SDS011;5090;51.258;4.436;2023-03-12T02:18:33;6.73;;;4.10;;
10100;SDS011;5090;51.258;4.436;2023-03-12T02:21:06;9.23;;;4.63;;
10100;SDS011;5090;51.258;4.436;2023-03-12T02:23:33;9.43;;;4.00;;
10100;SDS011;5090;51.258;4.436;2023-03-12T02:25:59;7.63;;;5.03;;
10100;SDS011;5090;51.258;4.436;2023-03-12T02:28:27;7.20;;;4.57;;
10100;SDS011;5090;51.258;4.436;2023-03-12T02:30:56;8.07;;;4.70;;
10100;SDS011;5090;51.258;4.436;2023-03-12T02:33:24;7.90;;;4.20;;
10100;SDS011;5090;51.258;4.436;2023-03-12T02:35:52;9.73;;;4.73;;
10100;SDS011;5090;51.258;4.436;2023-03-12T02:38:54;7.67;;;5.00;;
10100;SDS011;5090;51.258;4.436;2023-03-12T02:41:10;8.07;;;4.63;;
10100;SDS011;5090;51.258;4.436;2023-03-12T02:43:35;8.60;;;4.07;;
10100;SDS011;5090;51.258;4.436;2023-03-12T02:46:03;5.27;;;3.70;;
10100;SDS011;5090;51.258;4.436;2023-03-12T02:48:32;6.77;;;4.53;;
10100;SDS011;5090;51.258;4.436;2023-03-12T02:51:00;8.23;;;4.53;;
10100;SDS011;5090;51.258;4.436;2023-03-12T02:53:28;8.97;;;4.10;;
10100;SDS011;5090;51.258;4.436;2023-03-12T02:55:56;7.27;;;3.73;;
10100;SDS011;5090;51.258;4.436;2023-03-12T02:58:25;8.87;;;4.47;;
10100;SDS011;5090;51.258;4.436;2023-03-12T03:00:53;8.57;;;4.03;;
10100;SDS011;5090;51.258;4.436;2023-03-12T03:03:21;7.27;;;3.77;;
10100;SDS011;5090;51.258;4.436;2023-03-12T03:05:49;6.47;;;3.43;;
10100;SDS011;5090;51.258;4.436;2023-03-12T03:08:17;7.73;;;3.43;;
10100;SDS011;5090;51.258;4.436;2023-03-12T03:10:46;6.10;;;3.80;;
10100;SDS011;5090;51.258;4.436;2023-03-12T03:13:14;10.53;;;4.10;;
10100;SDS011;5090;51.258;4.436;2023-03-12T03:15:42;4.77;;;3.13;;
10100;SDS011;5090;51.258;4.436;2023-03-12T03:18:10;9.07;;;3.50;;
10100;SDS011;5090;51.258;4.436;2023-03-12T03:20:38;6.17;;;3.47;;
10100;SDS011;5090;51.258;4.436;2023-03-12T03:23:07;4.10;;;2.93;;
10100;SDS011;5090;51.258;4.436;2023-03-12T03:25:35;7.37;;;3.73;;
10100;SDS011;5090;51.258;4.436;2023-03-12T03:28:03;6.40;;;3.00;;
10100;SDS011;5090;51.258;4.436;2023-03-12T03:30:31;6.97;;;2.87;;
10100;SDS011;5090;51.258;4.436;2023-03-12T03:33:00;8.00;;;3.50;;
10100;SDS011;5090;51.258;4.436;2023-03-12T03:35:28;6.93;;;3.10;;
10100;SDS011;5090;51.258;4.436;2023-03-12T03:37:56;6.87;;;3.47;;
10100;SDS011;5090;51.258;4.436;2023-03-12T03:40:24;8.67;;;3.30;;
10100;SDS011;5090;51.258;4.436;2023-03-12T03:42:52;6.50;;;2.77;;
10100;SDS011;5090;51.258;4.436;2023-03-12T03:45:21;11.30;;;3.07;;
10100;SDS011;5090;51.258;4.436;2023-03-12T03:47:49;5.63;;;2.70;;
10100;SDS011;5090;51.258;4.436;2023-03-12T03:50:21;4.20;;;3.57;;
10100;SDS011;5090;51.258;4.436;2023-03-12T03:52:49;5.77;;;3.50;;
10100;SDS011;5090;51.258;4.436;2023-03-12T03:55:18;7.90;;;3.30;;
10100;SDS011;5090;51.258;4.436;2023-03-12T03:57:46;8.20;;;3.33;;
10100;SDS011;5090;51.258;4.436;2023-03-12T04:00:14;7.33;;;3.97;;
10100;SDS011;5090;51.258;4.436;2023-03-12T04:02:43;9.57;;;3.67;;
10100;SDS011;5090;51.258;4.436;2023-03-12T04:05:11;6.73;;;3.60;;
10100;SDS011;5090;51.258;4.436;2023-03-12T04:07:39;8.20;;;3.97;;
10100;SDS011;5090;51.258;4.436;2023-03-12T04:10:08;5.73;;;3.13;;
10100;SDS011;5090;51.258;4.436;2023-03-12T04:12:36;5.00;;;3.13;;
10100;SDS011;5090;51.258;4.436;2023-03-12T04:15:05;6.70;;;3.67;;
10100;SDS011;5090;51.258;4.436;2023-03-12T04:17:34;8.57;;;3.20;;
10100;SDS011;5090;51.258;4.436;2023-03-12T04:20:02;4.50;;;3.20;;
10100;SDS011;5090;51.258;4.436;2023-03-12T04:22:31;6.20;;;3.00;;
10100;SDS011;5090;51.258;4.436;2023-03-12T04:24:59;4.17;;;3.13;;
10100;SDS011;5090;51.258;4.436;2023-03-12T04:27:27;6.80;;;3.13;;
10100;SDS011;5090;51.258;4.436;2023-03-12T04:29:55;9.43;;;5.23;;
10100;SDS011;5090;51.258;4.436;2023-03-12T04:32:24;11.47;;;5.63;;
10100;SDS011;5090;51.258;4.436;2023-03-12T04:34:52;21.47;;;8.10;;
10100;SDS011;5090;51.258;4.436;2023-03-12T04:37:20;10.60;;;4.23;;
10100;SDS011;5090;51.258;4.436;2023-03-12T04:39:48;6.30;;;3.40;;
10100;SDS011;5090;51.258;4.436;2023-03-12T04:42:16;4.23;;;3.17;;
10100;SDS011;5090;51.258;4.436;2023-03-12T04:44:45;8.17;;;3.67;;
10100;SDS011;5090;51.258;4.436;2023-03-12T04:47:13;11.43;;;3.43;;
10100;SDS011;5090;51.258;4.436;2023-03-12T04:49:41;7.83;;;3.57;;
10100;SDS011;5090;51.258;4.436;2023-03-12T04:52:09;6.13;;;3.17;;
10100;SDS011;5090;51.258;4.436;2023-03-12T04:54:37;5.50;;;3.40;;
10100;SDS011;5090;51.258;4.436;2023-03-12T04:57:06;10.10;;;3.90;;
10100;SDS011;5090;51.258;4.436;2023-03-12T04:59:34;6.50;;;3.30;;
10100;SDS011;5090;51.258;4.436;2023-03-12T05:02:02;7.97;;;4.17;;
10100;SDS011;5090;51.258;4.436;2023-03-12T05:04:30;6.37;;;3.67;;
10100;SDS011;5090;51.258;4.436;2023-03-12T05:06:58;7.50;;;3.10;;
10100;SDS011;5090;51.258;4.436;2023-03-12T05:09:27;5.13;;;3.33;;
10100;SDS011;5090;51.258;4.436;2023-03-12T05:11:55;6.00;;;3.50;;
10100;SDS011;5090;51.258;4.436;2023-03-12T05:14:23;9.37;;;4.67;;
10100;SDS011;5090;51.258;4.436;2023-03-12T05:16:51;6.87;;;3.97;;
10100;SDS011;5090;51.258;4.436;2023-03-12T05:19:20;6.70;;;3.87;;
10100;SDS011;5090;51.258;4.436;2023-03-12T05:21:48;5.10;;;3.43;;
10100;SDS011;5090;51.258;4.436;2023-03-12T05:24:16;7.17;;;3.47;;
10100;SDS011;5090;51.258;4.436;2023-03-12T05:26:44;4.20;;;3.10;;
10100;SDS011;5090;51.258;4.436;2023-03-12T05:29:13;9.97;;;4.70;;
10100;SDS011;5090;51.258;4.436;2023-03-12T05:31:41;6.90;;;3.60;;
10100;SDS011;5090;51.258;4.436;2023-03-12T05:34:10;5.47;;;3.80;;
10100;SDS011;5090;51.258;4.436;2023-03-12T05:36:38;5.73;;;3.80;;
10100;SDS011;5090;51.258;4.436;2023-03-12T05:39:06;6.43;;;4.03;;
10100;SDS011;5090;51.258;4.436;2023-03-12T05:41:34;5.97;;;3.73;;
10100;SDS011;5090;51.258;4.436;2023-03-12T05:44:03;7.13;;;4.30;;
10100;SDS011;5090;51.258;4.436;2023-03-12T05:46:31;8.50;;;4.57;;
10100;SDS011;5090;51.258;4.436;2023-03-12T05:48:59;6.80;;;3.70;;
10100;SDS011;5090;51.258;4.436;2023-03-12T05:51:27;8.70;;;4.40;;
10100;SDS011;5090;51.258;4.436;2023-03-12T05:53:56;10.10;;;6.40;;
10100;SDS011;5090;51.258;4.436;2023-03-12T05:56:24;10.77;;;5.10;;
10100;SDS011;5090;51.258;4.436;2023-03-12T05:58:52;10.47;;;5.60;;
10100;SDS011;5090;51.258;4.436;2023-03-12T06:01:23;9.37;;;4.60;;
10100;SDS011;5090;51.258;4.436;2023-03-12T06:03:49;6.13;;;4.50;;
10100;SDS011;5090;51.258;4.436;2023-03-12T06:06:18;6.23;;;4.23;;
10100;SDS011;5090;51.258;4.436;2023-03-12T06:08:46;7.63;;;4.67;;
10100;SDS011;5090;51.258;4.436;2023-03-12T06:11:14;7.93;;;4.80;;
10100;SDS011;5090;51.258;4.436;2023-03-12T06:13:43;7.73;;;5.27;;
10100;SDS011;5090;51.258;4.436;2023-03-12T06:16:15;8.30;;;4.53;;
10100;SDS011;5090;51.258;4.436;2023-03-12T06:18:42;8.30;;;4.97;;
10100;SDS011;5090;51.258;4.436;2023-03-12T06:21:12;10.77;;;5.40;;
10100;SDS011;5090;51.258;4.436;2023-03-12T06:23:39;7.83;;;5.37;;
10100;SDS011;5090;51.258;4.436;2023-03-12T06:26:07;12.33;;;6.20;;
10100;SDS011;5090;51.258;4.436;2023-03-12T06:28:35;13.33;;;6.87;;
10100;SDS011;5090;51.258;4.436;2023-03-12T06:31:04;8.30;;;5.57;;
10100;SDS011;5090;51.258;4.436;2023-03-12T06:33:32;9.87;;;6.60;;
10100;SDS011;5090;51.258;4.436;2023-03-12T06:36:01;9.73;;;6.63;;
10100;SDS011;5090;51.258;4.436;2023-03-12T06:38:28;10.53;;;6.33;;
10100;SDS011;5090;51.258;4.436;2023-03-12T06:40:57;9.00;;;7.07;;
10100;SDS011;5090;51.258;4.436;2023-03-12T06:43:25;8.73;;;6.73;;
10100;SDS011;5090;51.258;4.436;2023-03-12T06:45:53;9.10;;;7.23;;
10100;SDS011;5090;51.258;4.436;2023-03-12T06:48:22;11.60;;;7.17;;
10100;SDS011;5090;51.258;4.436;2023-03-12T06:50:50;12.97;;;8.70;;
10100;SDS011;5090;51.258;4.436;2023-03-12T06:53:18;13.03;;;8.23;;
10100;SDS011;5090;51.258;4.436;2023-03-12T06:55:48;18.63;;;10.30;;
10100;SDS011;5090;51.258;4.436;2023-03-12T06:58:15;16.67;;;10.80;;
10100;SDS011;5090;51.258;4.436;2023-03-12T07:00:43;16.27;;;10.63;;
10100;SDS011;5090;51.258;4.436;2023-03-12T07:03:12;18.10;;;10.70;;
10100;SDS011;5090;51.258;4.436;2023-03-12T07:05:42;18.87;;;12.43;;
10100;SDS011;5090;51.258;4.436;2023-03-12T07:08:08;22.40;;;13.60;;
10100;SDS011;5090;51.258;4.436;2023-03-12T07:10:36;24.63;;;14.20;;
10100;SDS011;5090;51.258;4.436;2023-03-12T07:13:04;24.27;;;14.33;;
10100;SDS011;5090;51.258;4.436;2023-03-12T07:15:33;25.90;;;15.77;;
10100;SDS011;5090;51.258;4.436;2023-03-12T07:18:03;19.50;;;14.10;;
10100;SDS011;5090;51.258;4.436;2023-03-12T07:20:31;23.90;;;14.93;;
10100;SDS011;5090;51.258;4.436;2023-03-12T07:22:59;24.27;;;15.57;;
10100;SDS011;5090;51.258;4.436;2023-03-12T07:25:28;24.70;;;16.17;;
10100;SDS011;5090;51.258;4.436;2023-03-12T07:27:56;27.20;;;16.30;;
10100;SDS011;5090;51.258;4.436;2023-03-12T07:30:24;34.20;;;18.13;;
10100;SDS011;5090;51.258;4.436;2023-03-12T07:32:52;28.97;;;17.93;;
10100;SDS011;5090;51.258;4.436;2023-03-12T07:35:25;33.17;;;17.13;;
10100;SDS011;5090;51.258;4.436;2023-03-12T07:37:53;27.40;;;16.93;;
10100;SDS011;5090;51.258;4.436;2023-03-12T07:40:21;28.30;;;17.90;;
10100;SDS011;5090;51.258;4.436;2023-03-12T07:42:50;27.53;;;17.77;;
10100;SDS011;5090;51.258;4.436;2023-03-12T07:45:18;32.77;;;17.33;;
10100;SDS011;5090;51.258;4.436;2023-03-12T07:47:46;25.07;;;16.17;;
10100;SDS011;5090;51.258;4.436;2023-03-12T07:50:15;30.43;;;15.97;;
10100;SDS011;5090;51.258;4.436;2023-03-12T07:52:43;29.20;;;15.27;;
10100;SDS011;5090;51.258;4.436;2023-03-12T07:55:11;25.10;;;14.87;;
10100;SDS011;5090;51.258;4.436;2023-03-12T07:57:40;29.13;;;15.47;;
10100;SDS011;5090;51.258;4.436;2023-03-12T08:00:08;24.07;;;14.40;;
10100;SDS011;5090;51.258;4.436;2023-03-12T08:02:36;29.60;;;14.47;;
10100;SDS011;5090;51.258;4.436;2023-03-12T08:05:05;31.30;;;15.13;;
10100;SDS011;5090;51.258;4.436;2023-03-12T08:07:33;28.67;;;14.40;;
10100;SDS011;5090;51.258;4.436;2023-03-12T08:10:03;29.87;;;14.97;;
10100;SDS011;5090;51.258;4.436;2023-03-12T08:12:31;31.50;;;15.13;;
10100;SDS011;5090;51.258;4.436;2023-03-12T08:15:04;31.70;;;15.07;;
10100;SDS011;5090;51.258;4.436;2023-03-12T08:17:36;31.10;;;15.00;;
10100;SDS011;5090;51.258;4.436;2023-03-12T08:20:04;40.50;;;17.90;;
10100;SDS011;5090;51.258;4.436;2023-03-12T08:22:34;35.87;;;17.70;;
10100;SDS011;5090;51.258;4.436;2023-03-12T08:25:02;41.23;;;17.73;;
10100;SDS011;5090;51.258;4.436;2023-03-12T08:27:30;44.17;;;18.73;;
10100;SDS011;5090;51.258;4.436;2023-03-12T08:29:59;42.47;;;17.53;;
10100;SDS011;5090;51.258;4.436;2023-03-12T08:32:27;41.90;;;16.90;;
10100;SDS011;5090;51.258;4.436;2023-03-12T08:34:55;49.10;;;18.40;;
10100;SDS011;5090;51.258;4.436;2023-03-12T08:37:23;40.40;;;18.20;;
10100;SDS011;5090;51.258;4.436;2023-03-12T08:39:54;42.13;;;18.30;;
10100;SDS011;5090;51.258;4.436;2023-03-12T08:42:22;49.43;;;18.70;;
10100;SDS011;5090;51.258;4.436;2023-03-12T08:44:50;49.97;;;18.17;;
10100;SDS011;5090;51.258;4.436;2023-03-12T08:47:18;44.83;;;17.77;;
10100;SDS011;5090;51.258;4.436;2023-03-12T08:49:46;38.63;;;16.50;;
10100;SDS011;5090;51.258;4.436;2023-03-12T08:52:15;55.57;;;18.43;;
10100;SDS011;5090;51.258;4.436;2023-03-12T08:54:43;51.43;;;18.70;;
10100;SDS011;5090;51.258;4.436;2023-03-12T08:57:11;55.77;;;18.97;;
10100;SDS011;5090;51.258;4.436;2023-03-12T08:59:40;51.47;;;19.53;;
10100;SDS011;5090;51.258;4.436;2023-03-12T09:02:10;59.00;;;19.70;;
10100;SDS011;5090;51.258;4.436;2023-03-12T09:04:39;53.83;;;18.50;;
10100;SDS011;5090;51.258;4.436;2023-03-12T09:07:07;45.17;;;18.33;;
10100;SDS011;5090;51.258;4.436;2023-03-12T09:09:35;43.70;;;19.93;;
10100;SDS011;5090;51.258;4.436;2023-03-12T09:12:04;38.00;;;16.30;;
10100;SDS011;5090;51.258;4.436;2023-03-12T09:14:32;36.33;;;17.27;;
10100;SDS011;5090;51.258;4.436;2023-03-12T09:17:00;56.53;;;18.87;;
10100;SDS011;5090;51.258;4.436;2023-03-12T09:19:28;39.23;;;16.57;;
10100;SDS011;5090;51.258;4.436;2023-03-12T09:22:01;45.30;;;16.83;;
10100;SDS011;5090;51.258;4.436;2023-03-12T09:24:29;44.03;;;16.27;;
10100;SDS011;5090;51.258;4.436;2023-03-12T09:26:57;44.60;;;15.10;;
10100;SDS011;5090;51.258;4.436;2023-03-12T09:29:25;39.17;;;15.07;;
10100;SDS011;5090;51.258;4.436;2023-03-12T09:31:54;37.40;;;15.10;;
10100;SDS011;5090;51.258;4.436;2023-03-12T09:34:22;41.40;;;15.53;;
10100;SDS011;5090;51.258;4.436;2023-03-12T09:36:50;37.43;;;13.87;;
10100;SDS011;5090;51.258;4.436;2023-03-12T09:39:18;38.10;;;13.67;;
10100;SDS011;5090;51.258;4.436;2023-03-12T09:41:47;40.27;;;14.17;;
10100;SDS011;5090;51.258;4.436;2023-03-12T09:44:33;33.57;;;12.97;;
10100;SDS011;5090;51.258;4.436;2023-03-12T09:47:02;34.17;;;11.63;;
10100;SDS011;5090;51.258;4.436;2023-03-12T09:49:33;38.87;;;13.10;;
10100;SDS011;5090;51.258;4.436;2023-03-12T09:51:59;40.90;;;12.67;;
10100;SDS011;5090;51.258;4.436;2023-03-12T09:54:35;37.50;;;10.53;;
10100;SDS011;5090;51.258;4.436;2023-03-12T09:57:02;36.43;;;11.00;;
10100;SDS011;5090;51.258;4.436;2023-03-12T09:59:29;35.67;;;9.93;;
10100;SDS011;5090;51.258;4.436;2023-03-12T10:01:58;35.00;;;10.33;;
10100;SDS011;5090;51.258;4.436;2023-03-12T10:04:32;25.67;;;8.73;;
10100;SDS011;5090;51.258;4.436;2023-03-12T10:07:00;34.03;;;9.50;;
10100;SDS011;5090;51.258;4.436;2023-03-12T10:09:39;27.97;;;8.50;;
10100;SDS011;5090;51.258;4.436;2023-03-12T10:12:10;31.27;;;9.40;;
10100;SDS011;5090;51.258;4.436;2023-03-12T10:15:11;32.33;;;7.83;;
10100;SDS011;5090;51.258;4.436;2023-03-12T10:17:24;26.90;;;7.57;;
10100;SDS011;5090;51.258;4.436;2023-03-12T10:22:29;38.70;;;9.50;;
10100;SDS011;5090;51.258;4.436;2023-03-12T10:24:56;38.67;;;9.60;;
10100;SDS011;5090;51.258;4.436;2023-03-12T10:27:23;31.60;;;9.87;;
10100;SDS011;5090;51.258;4.436;2023-03-12T10:29:51;32.23;;;9.73;;
10100;SDS011;5090;51.258;4.436;2023-03-12T10:32:24;33.03;;;11.10;;
10100;SDS011;5090;51.258;4.436;2023-03-12T10:34:52;34.43;;;10.90;;
10100;SDS011;5090;51.258;4.436;2023-03-12T10:37:21;33.87;;;11.10;;
10100;SDS011;5090;51.258;4.436;2023-03-12T10:39:48;30.33;;;11.10;;
10100;SDS011;5090;51.258;4.436;2023-03-12T10:42:18;36.80;;;11.60;;
10100;SDS011;5090;51.258;4.436;2023-03-12T10:44:46;40.23;;;12.10;;
10100;SDS011;5090;51.258;4.436;2023-03-12T10:47:17;36.93;;;12.57;;
10100;SDS011;5090;51.258;4.436;2023-03-12T10:49:44;33.27;;;11.40;;
10100;SDS011;5090;51.258;4.436;2023-03-12T10:52:14;38.60;;;12.73;;
10100;SDS011;5090;51.258;4.436;2023-03-12T10:54:42;35.97;;;11.03;;
10100;SDS011;5090;51.258;4.436;2023-03-12T10:57:14;28.83;;;9.07;;
10100;SDS011;5090;51.258;4.436;2023-03-12T10:59:43;34.33;;;10.00;;
10100;SDS011;5090;51.258;4.436;2023-03-12T11:04:49;23.87;;;10.67;;
10100;SDS011;5090;51.258;4.436;2023-03-12T11:07:15;30.83;;;10.07;;
10100;SDS011;5090;51.258;4.436;2023-03-12T11:09:42;28.93;;;9.70;;
10100;SDS011;5090;51.258;4.436;2023-03-12T11:14:46;28.50;;;9.03;;
10100;SDS011;5090;51.258;4.436;2023-03-12T11:17:19;25.43;;;8.20;;
10100;SDS011;5090;51.258;4.436;2023-03-12T11:19:46;29.43;;;8.23;;
10100;SDS011;5090;51.258;4.436;2023-03-12T11:22:14;26.63;;;8.40;;
10100;SDS011;5090;51.258;4.436;2023-03-12T11:27:20;30.30;;;8.87;;
10100;SDS011;5090;51.258;4.436;2023-03-12T11:29:47;31.23;;;7.90;;
10100;SDS011;5090;51.258;4.436;2023-03-12T11:32:17;27.80;;;7.77;;
10100;SDS011;5090;51.258;4.436;2023-03-12T11:34:44;31.57;;;8.33;;
10100;SDS011;5090;51.258;4.436;2023-03-12T11:37:14;30.53;;;7.53;;
10100;SDS011;5090;51.258;4.436;2023-03-12T11:39:47;32.10;;;8.07;;
10100;SDS011;5090;51.258;4.436;2023-03-12T11:42:18;26.90;;;7.50;;
10100;SDS011;5090;51.258;4.436;2023-03-12T11:44:49;36.07;;;7.20;;
10100;SDS011;5090;51.258;4.436;2023-03-12T11:47:16;26.93;;;7.63;;
10100;SDS011;5090;51.258;4.436;2023-03-12T11:49:46;31.97;;;7.50;;
10100;SDS011;5090;51.258;4.436;2023-03-12T11:52:19;28.23;;;7.60;;
10100;SDS011;5090;51.258;4.436;2023-03-12T11:55:22;26.97;;;7.77;;
10100;SDS011;5090;51.258;4.436;2023-03-12T12:00:12;29.30;;;7.00;;
10100;SDS011;5090;51.258;4.436;2023-03-12T12:02:48;28.53;;;6.80;;
10100;SDS011;5090;51.258;4.436;2023-03-12T12:05:31;22.80;;;5.37;;
10100;SDS011;5090;51.258;4.436;2023-03-12T12:08:04;27.07;;;5.93;;
10100;SDS011;5090;51.258;4.436;2023-03-12T12:10:30;26.43;;;6.23;;
10100;SDS011;5090;51.258;4.436;2023-03-12T12:13:03;25.30;;;6.87;;
10100;SDS011;5090;51.258;4.436;2023-03-12T12:15:31;21.10;;;5.80;;
10100;SDS011;5090;51.258;4.436;2023-03-12T12:17:58;20.80;;;5.13;;
10100;SDS011;5090;51.258;4.436;2023-03-12T12:20:30;22.87;;;5.60;;
10100;SDS011;5090;51.258;4.436;2023-03-12T12:22:59;22.30;;;5.63;;
10100;SDS011;5090;51.258;4.436;2023-03-12T12:25:32;27.43;;;4.77;;
10100;SDS011;5090;51.258;4.436;2023-03-12T12:28:19;18.17;;;4.50;;
10100;SDS011;5090;51.258;4.436;2023-03-12T12:30:50;21.30;;;4.37;;
10100;SDS011;5090;51.258;4.436;2023-03-12T12:33:19;16.97;;;4.30;;
10100;SDS011;5090;51.258;4.436;2023-03-12T12:35:44;19.73;;;4.97;;
10100;SDS011;5090;51.258;4.436;2023-03-12T12:38:15;17.90;;;3.70;;
10100;SDS011;5090;51.258;4.436;2023-03-12T12:40:43;18.93;;;4.17;;
10100;SDS011;5090;51.258;4.436;2023-03-12T12:43:14;17.73;;;4.53;;
10100;SDS011;5090;51.258;4.436;2023-03-12T12:45:38;17.27;;;4.50;;
10100;SDS011;5090;51.258;4.436;2023-03-12T12:48:10;17.77;;;3.93;;
10100;SDS011;5090;51.258;4.436;2023-03-12T12:50:36;29.07;;;4.93;;
10100;SDS011;5090;51.258;4.436;2023-03-12T12:53:07;26.57;;;5.03;;
10100;SDS011;5090;51.258;4.436;2023-03-12T12:55:35;23.70;;;4.43;;
10100;SDS011;5090;51.258;4.436;2023-03-12T12:58:03;20.00;;;4.80;;
10100;SDS011;5090;51.258;4.436;2023-03-12T13:00:35;13.07;;;3.20;;
10100;SDS011;5090;51.258;4.436;2023-03-12T13:03:00;24.73;;;5.20;;
10100;SDS011;5090;51.258;4.436;2023-03-12T13:08:03;26.97;;;4.70;;
10100;SDS011;5090;51.258;4.436;2023-03-12T13:10:39;25.03;;;6.43;;
10100;SDS011;5090;51.258;4.436;2023-03-12T13:13:10;28.03;;;5.17;;
10100;SDS011;5090;51.258;4.436;2023-03-12T13:15:38;31.97;;;5.87;;
10100;SDS011;5090;51.258;4.436;2023-03-12T13:18:07;31.23;;;5.53;;
10100;SDS011;5090;51.258;4.436;2023-03-12T13:20:39;24.40;;;4.73;;
10100;SDS011;5090;51.258;4.436;2023-03-12T13:23:12;24.67;;;4.73;;
10100;SDS011;5090;51.258;4.436;2023-03-12T13:25:40;20.57;;;4.77;;
10100;SDS011;5090;51.258;4.436;2023-03-12T13:30:48;20.73;;;4.00;;
10100;SDS011;5090;51.258;4.436;2023-03-12T13:33:18;23.03;;;4.40;;
10100;SDS011;5090;51.258;4.436;2023-03-12T13:35:48;23.07;;;4.37;;
10100;SDS011;5090;51.258;4.436;2023-03-12T13:38:17;26.37;;;4.50;;
10100;SDS011;5090;51.258;4.436;2023-03-12T13:43:32;23.50;;;3.83;;
10100;SDS011;5090;51.258;4.436;2023-03-12T13:46:11;20.00;;;3.73;;
10100;SDS011;5090;51.258;4.436;2023-03-12T13:48:35;14.53;;;4.13;;
10100;SDS011;5090;51.258;4.436;2023-03-12T13:51:20;20.87;;;4.07;;
10100;SDS011;5090;51.258;4.436;2023-03-12T13:53:49;20.10;;;4.27;;
10100;SDS011;5090;51.258;4.436;2023-03-12T13:56:17;17.90;;;3.37;;
10100;SDS011;5090;51.258;4.436;2023-03-12T13:59:05;20.50;;;3.37;;
10100;SDS011;5090;51.258;4.436;2023-03-12T14:01:35;18.20;;;3.70;;
10100;SDS011;5090;51.258;4.436;2023-03-12T14:04:04;14.50;;;3.43;;
10100;SDS011;5090;51.258;4.436;2023-03-12T14:06:32;16.70;;;3.53;;
10100;SDS011;5090;51.258;4.436;2023-03-12T14:11:44;15.93;;;3.93;;
10100;SDS011;5090;51.258;4.436;2023-03-12T14:16:47;24.93;;;4.80;;
10100;SDS011;5090;51.258;4.436;2023-03-12T14:19:22;19.77;;;4.10;;
10100;SDS011;5090;51.258;4.436;2023-03-12T14:21:52;24.60;;;4.37;;
10100;SDS011;5090;51.258;4.436;2023-03-12T14:24:30;19.40;;;4.17;;
10100;SDS011;5090;51.258;4.436;2023-03-12T14:27:00;26.03;;;4.33;;
10100;SDS011;5090;51.258;4.436;2023-03-12T14:29:29;25.23;;;4.13;;
10100;SDS011;5090;51.258;4.436;2023-03-12T14:31:57;18.93;;;3.87;;
10100;SDS011;5090;51.258;4.436;2023-03-12T14:34:27;19.57;;;4.20;;
10100;SDS011;5090;51.258;4.436;2023-03-12T14:36:59;20.37;;;3.93;;
10100;SDS011;5090;51.258;4.436;2023-03-12T14:39:35;25.90;;;5.20;;
10100;SDS011;5090;51.258;4.436;2023-03-12T14:42:03;15.80;;;3.80;;
10100;SDS011;5090;51.258;4.436;2023-03-12T14:44:31;26.00;;;4.23;;
10100;SDS011;5090;51.258;4.436;2023-03-12T14:47:00;21.50;;;4.07;;
10100;SDS011;5090;51.258;4.436;2023-03-12T14:49:28;23.47;;;4.03;;
10100;SDS011;5090;51.258;4.436;2023-03-12T14:51:56;20.23;;;3.70;;
10100;SDS011;5090;51.258;4.436;2023-03-12T14:54:25;19.20;;;4.80;;
10100;SDS011;5090;51.258;4.436;2023-03-12T14:56:52;22.53;;;4.30;;
10100;SDS011;5090;51.258;4.436;2023-03-12T14:59:27;24.33;;;3.93;;
10100;SDS011;5090;51.258;4.436;2023-03-12T15:01:57;24.23;;;4.57;;
10100;SDS011;5090;51.258;4.436;2023-03-12T15:04:23;25.20;;;4.60;;
10100;SDS011;5090;51.258;4.436;2023-03-12T15:06:57;22.20;;;4.50;;
10100;SDS011;5090;51.258;4.436;2023-03-12T15:09:26;21.63;;;4.23;;
10100;SDS011;5090;51.258;4.436;2023-03-12T15:11:57;19.90;;;4.30;;
10100;SDS011;5090;51.258;4.436;2023-03-12T15:14:25;17.77;;;4.70;;
10100;SDS011;5090;51.258;4.436;2023-03-12T15:16:53;24.33;;;3.90;;
10100;SDS011;5090;51.258;4.436;2023-03-12T15:19:22;25.17;;;3.70;;
10100;SDS011;5090;51.258;4.436;2023-03-12T15:21:50;21.00;;;3.27;;
10100;SDS011;5090;51.258;4.436;2023-03-12T15:24:18;25.10;;;4.07;;
10100;SDS011;5090;51.258;4.436;2023-03-12T15:26:46;21.10;;;4.40;;
10100;SDS011;5090;51.258;4.436;2023-03-12T15:29:18;18.67;;;3.33;;